aviador You're here:

KBKX Decoded Metar

BROOKINGS in SD, USA
Report Time2018-01-17 17:56:00
UTC Time2018-01-17 18:17:22
Flight Rules vfr VFR
Wind210° at 12 kt
W.Decomp.*RWY 17: 9.9 kt HW 6.7 kt RCW
RWY 12: 1.3 kt HW 11.9 kt RCW
W.Rank210° ranks 26
Current wind is above 210° avg. (8.6)
Visibility9999 m
Phenomena:N/A
Clouds:N/A
Expected CloudBase > 2,400 ft AGL from Temp-Dew spread
CeilingNone
Temp-7°C (ISA -19)
Dew Point-13°C (63% RH)
AAT-14.6°C
QNH1023 hPa
Density Alt-971 ft
Elevation1,647 ft
Report Wrong Elevation
Raw Report
METAR KBKX 171756Z AUTO 21012KT 10SM CLR M07/M13 A3020 RMK AO2 SLP277
T10671128 11067 21161 58024 FZRANO=

Extra information for KBKX:More info

Metar Taf Metar & Taf Last 4 Metars F.Rules Stats Wind Profile Meteogram Temp Stats Airport Information Weather charts Add Link Nearby VenuesMetar ALERT Operation Metar Decoded Social comments

AIRNAV info for KBKX